Crawford, CO (81415)

2:45 PM MDT on April 24, 2017 (GMT -0600)
KCOCRAWF5 | | Change Station

Elev 6896 ft 38.73 °N, 107.57 °W | Updated 8 minutes ago

Overcast
Overcast
56.3 °F
Feels Like 56.3 °F
N
10.0
Wind Variable Wind from North
Gusts 21.0 mph

Today
High -- | Low -- °F
--% Chance of Precip.
Yesterday
High -- | Low -- °F
Precip. -- in
Pressure 29.53 in
Visibility 10.0 miles
Clouds Mostly Cloudy 10000 ft
Dew Point 25 °F
Humidity 30%
Rainfall 0.00 in
Snow Depth Not available.
6:21 AM 7:56 PM
Waning Crescent, 4% visible
METAR KMTJ 241953Z AUTO 21022G34KT 10SM BKN100 18/M05 A2973 RMK AO2 PK WND 22034/1951 SLP998 T01831050
Pressure 29.53 in
Visibility 10.0 miles
Clouds Mostly Cloudy 10000 ft
Dew Point 25 °F
Humidity 30%
Rainfall 0.00 in
Snow Depth Not available.
6:21 AM 7:56 PM
Waning Crescent, 4% visible
METAR KMTJ 241953Z AUTO 21022G34KT 10SM BKN100 18/M05 A2973 RMK AO2 PK WND 22034/1951 SLP998 T01831050

Get Severe Weather Alerts

Thanks for signing up!

Be on the lookout for a verification email in your inbox.

You'll start receiving the daily forecast at 8 AM.

×

10-Day Weather Forecast

Almanac

Astronomy

Apr. 24, 2017 Rise Set
Actual Time
Civil Twilight
Nautical Twilight
Astronomical Twilight
Moon
Length of Visible Light
Length of Day
Tomorrow will be .
, % of the Moon is Illuminated

Today's Extremes

State Highs State Lows

Community

WunderPhotos

WunderBlog® & News

Nearby

Air Quality

  Air Quality AQ Index Pollutant
Not available.

Snow Depth

Station Depth Elevation

Earthquake Activity

City Distance Mag. Time & Date
Minimum magnitude displayed is 2.5.

Coastal Water Temperatures

Place Temperature

Stations

Nearby Weather Stations

Station Location Temp. Windchill Dew Point Humidity Wind Precip. Elev Updated Type
                   

Watches & Warnings

There are currently no watches in effect.